Time;durP1;ratioP1;P1;durP2;ratioP2;P2;SDS_P1;SDS_P2;PMS_P1;PMS_P2;Temp;Humidity;BMP_temperature;BMP_pressure;BME280_temperature;BME280_humidity;BME280_pressure;Samples;Min_cycle;Max_cycle;Signal;HPM_P1;HPM_P2
2022/06/27 00:01:58;;;;;;;12.73;10.05;;;;;;;16.95;80.42;101484.75;5006887;28;20095;-65
2022/06/27 00:04:24;;;;;;;13.07;10.93;;;;;;;16.92;80.46;101478.03;5003796;28;20117;-67
2022/06/27 00:06:49;;;;;;;14.20;10.95;;;;;;;16.87;81.18;101490.75;4997163;28;20022;-66
2022/06/27 00:09:14;;;;;;;13.55;10.98;;;;;;;16.85;80.68;101495.31;5005006;28;20052;-65
2022/06/27 00:11:40;;;;;;;12.35;11.07;;;;;;;16.89;81.18;101494.03;5003733;28;20044;-67
2022/06/27 00:14:05;;;;;;;12.35;11.07;;;;;;;16.87;80.97;101501.25;5004986;28;20029;-66
2022/06/27 00:16:31;;;;;;;12.50;10.98;;;;;;;16.92;81.14;101499.00;5005259;28;20026;-66
2022/06/27 00:18:56;;;;;;;12.13;10.82;;;;;;;16.85;81.43;101503.16;5007539;28;20060;-66
2022/06/27 00:21:21;;;;;;;11.32;10.05;;;;;;;16.89;81.19;101499.28;5005089;28;20140;-66
2022/06/27 00:23:47;;;;;;;12.50;10.90;;;;;;;16.89;81.54;101488.81;5005901;28;20034;-66
2022/06/27 00:26:12;;;;;;;13.18;10.98;;;;;;;16.84;81.53;101506.75;5002508;28;20080;-69
2022/06/27 00:28:38;;;;;;;12.30;11.10;;;;;;;16.84;82.08;101492.84;5000935;28;20045;-66
2022/06/27 00:31:03;;;;;;;12.57;10.98;;;;;;;16.78;82.21;101486.41;5000603;28;20030;-66
2022/06/27 00:33:29;;;;;;;12.05;10.95;;;;;;;16.80;81.87;101487.06;5004916;28;20030;-69
2022/06/27 00:35:54;;;;;;;12.07;10.77;;;;;;;16.85;81.87;101495.31;4998644;28;20038;-66
2022/06/27 00:38:20;;;;;;;12.50;10.95;;;;;;;16.81;81.66;101491.34;4998984;28;20070;-66
2022/06/27 00:40:46;;;;;;;12.93;11.10;;;;;;;16.86;81.77;101504.84;5007047;28;20401;-66
2022/06/27 00:43:11;;;;;;;12.15;10.95;;;;;;;16.86;81.60;101504.84;5004890;28;20029;-66
2022/06/27 00:45:37;;;;;;;11.52;10.32;;;;;;;16.78;82.46;101507.38;4993767;28;20072;-66
2022/06/27 00:48:02;;;;;;;11.63;10.27;;;;;;;16.88;81.59;101509.91;5005517;28;20036;-66
2022/06/27 00:50:28;;;;;;;12.52;10.55;;;;;;;16.84;82.20;101512.00;4991960;28;20535;-66
2022/06/27 00:52:54;;;;;;;11.65;10.45;;;;;;;16.92;81.96;101524.38;5006663;28;20579;-66
2022/06/27 00:55:19;;;;;;;11.45;10.25;;;;;;;16.89;81.20;101525.47;5002438;28;21511;-66
2022/06/27 00:57:45;;;;;;;13.38;10.65;;;;;;;16.85;80.82;101524.13;5000334;28;20030;-67
2022/06/27 01:00:11;;;;;;;11.48;10.23;;;;;;;16.87;80.83;101526.63;4998896;28;20033;-66
2022/06/27 01:02:36;;;;;;;12.57;10.68;;;;;;;16.84;80.93;101513.81;5003450;28;20483;-68
2022/06/27 01:05:03;;;;;;;11.95;10.75;;;;;;;16.81;81.78;101522.81;4996292;28;20046;-65
2022/06/27 01:07:29;;;;;;;13.18;11.77;;;;;;;16.78;82.50;101523.09;5000126;28;20045;-66
2022/06/27 01:09:57;;;;;;;13.65;12.05;;;;;;;16.84;82.48;101538.19;5006953;28;20057;-66
2022/06/27 01:12:23;;;;;;;13.73;12.27;;;;;;;16.80;82.83;101526.38;5005070;28;20030;-66
2022/06/27 01:14:50;;;;;;;13.25;11.95;;;;;;;16.67;82.86;101510.16;5001194;28;20425;-66
2022/06/27 01:17:16;;;;;;;13.40;12.05;;;;;;;16.80;82.27;101521.13;5005319;28;20037;-66
2022/06/27 01:19:42;;;;;;;13.95;12.55;;;;;;;16.80;81.99;101526.38;5002879;28;20060;-66
2022/06/27 01:22:08;;;;;;;14.18;12.63;;;;;;;16.84;81.89;101530.34;5002408;28;20049;-66
2022/06/27 01:24:34;;;;;;;14.25;12.85;;;;;;;16.77;82.31;101526.69;4997905;28;20034;-67
2022/06/27 01:27:00;;;;;;;14.82;13.13;;;;;;;16.76;83.06;101527.66;5002087;28;20072;-67
2022/06/27 01:29:26;;;;;;;13.93;12.48;;;;;;;16.73;83.64;101535.78;4996396;28;20458;-66
2022/06/27 01:31:51;;;;;;;13.65;12.20;;;;;;;16.75;83.25;101518.16;4999923;28;20030;-66
2022/06/27 01:34:17;;;;;;;13.95;12.52;;;;;;;16.79;83.38;101522.09;5005387;28;20030;-69
2022/06/27 01:36:46;;;;;;;14.18;12.80;;;;;;;16.74;83.09;101526.97;5000946;28;20092;-66
2022/06/27 01:39:18;;;;;;;14.40;12.90;;;;;;;16.73;83.33;101520.06;4998201;28;20026;-66
2022/06/27 01:41:46;;;;;;;15.27;13.77;;;;;;;16.68;83.19;101512.63;5004905;28;20176;-66
2022/06/27 01:44:12;;;;;;;;;;;;;;;16.91;81.79;101513.03;5006477;28;20037;-66
2022/06/27 01:47:05;;;;;;;14.15;12.75;;;;;;;16.76;83.20;101509.31;5014587;28;20004;-66
2022/06/27 01:49:33;;;;;;;14.65;12.88;;;;;;;16.68;83.88;101506.56;4990172;28;20175;-66
2022/06/27 01:52:01;;;;;;;14.80;13.20;;;;;;;16.70;84.81;101502.03;5003288;28;20032;-66
2022/06/27 01:54:26;;;;;;;14.38;12.88;;;;;;;16.72;84.28;101494.88;5006290;28;20030;-66
2022/06/27 01:56:53;;;;;;;14.43;12.77;;;;;;;16.72;84.43;101492.25;5005280;28;20124;-66
2022/06/27 01:59:27;;;;;;;15.50;13.90;;;;;;;16.67;84.69;101487.41;4989145;28;20022;-66
2022/06/27 02:01:53;;;;;;;14.38;12.88;;;;;;;16.69;84.35;101476.81;5002192;28;20025;-66
2022/06/27 02:04:19;;;;;;;15.02;13.48;;;;;;;16.67;84.66;101468.25;5000553;28;20485;-66
2022/06/27 02:06:45;;;;;;;14.85;12.85;;;;;;;16.65;85.11;101470.22;5002853;28;20024;-66
2022/06/27 02:09:13;;;;;;;14.52;13.02;;;;;;;16.67;85.10;101476.13;5005384;28;20026;-66
2022/06/27 02:11:41;;;;;;;15.52;14.02;;;;;;;16.68;85.25;101469.91;4998487;28;20038;-66
2022/06/27 02:14:06;;;;;;;15.38;13.90;;;;;;;16.67;85.10;101473.50;5002301;28;20084;-66
2022/06/27 02:16:32;;;;;;;15.60;13.00;;;;;;;16.58;85.61;101448.22;4999169;28;20034;-66
2022/06/27 02:18:57;;;;;;;15.20;13.70;;;;;;;16.68;85.33;101464.66;4993907;28;20116;-67
2022/06/27 02:21:26;;;;;;;15.60;13.80;;;;;;;16.64;85.38;101463.34;5001529;28;20205;-66
2022/06/27 02:23:53;;;;;;;14.10;12.80;;;;;;;16.65;84.81;101467.59;4999799;28;20044;-66
2022/06/27 02:26:29;;;;;;;15.02;13.60;;;;;;;16.56;85.17;101471.91;5002078;28;20112;-66
2022/06/27 02:28:55;;;;;;;14.43;12.98;;;;;;;16.58;84.80;101469.16;4996109;28;20037;-66
2022/06/27 02:31:21;;;;;;;14.15;12.73;;;;;;;16.57;85.13;101463.06;5000871;28;20030;-66
2022/06/27 02:33:48;;;;;;;14.55;13.15;;;;;;;16.44;85.26;101452.97;5005420;28;20081;-66
2022/06/27 02:36:26;;;;;;;16.13;13.38;;;;;;;16.53;85.76;101459.13;5000186;28;20486;-66
2022/06/27 02:38:54;;;;;;;14.32;12.88;;;;;;;16.42;85.86;101444.44;4987345;28;20065;-66
2022/06/27 02:41:20;;;;;;;15.18;13.77;;;;;;;16.56;85.91;101460.63;4998782;28;20034;-66
2022/06/27 02:43:52;;;;;;;15.63;14.13;;;;;;;16.50;86.34;101456.78;5004538;28;20022;-66
2022/06/27 02:46:19;;;;;;;14.38;12.98;;;;;;;16.56;85.98;101456.19;4992439;28;20386;-66
2022/06/27 02:48:49;;;;;;;15.48;14.07;;;;;;;16.52;85.51;101448.81;4994736;28;20025;-66
2022/06/27 02:51:21;;;;;;;15.20;13.70;;;;;;;16.51;85.45;101452.38;5002951;28;20030;-66
2022/06/27 02:54:04;;;;;;;15.40;13.80;;;;;;;16.52;86.05;101454.06;5004244;28;20037;-66
2022/06/27 02:56:31;;;;;;;15.30;13.73;;;;;;;16.52;85.79;101454.06;5003093;28;20040;-66
2022/06/27 02:59:10;;;;;;;15.95;14.10;;;;;;;16.50;86.08;101448.13;5004028;28;20034;-66
2022/06/27 03:01:38;;;;;;;15.00;13.50;;;;;;;16.53;86.54;101442.59;5001576;28;20040;-66
2022/06/27 03:04:03;;;;;;;16.23;14.68;;;;;;;16.51;85.80;101431.44;5003825;28;20022;-66
2022/06/27 03:06:29;;;;;;;15.77;14.18;;;;;;;16.53;85.08;101426.88;5003556;28;20056;-66
2022/06/27 03:08:55;;;;;;;15.90;14.30;;;;;;;16.51;85.34;101420.94;5003257;28;20105;-66
2022/06/27 03:11:22;;;;;;;15.80;14.20;;;;;;;16.44;86.07;101415.50;4998051;28;20390;-66
2022/06/27 03:13:48;;;;;;;15.57;14.07;;;;;;;16.45;85.32;101431.03;5002481;28;20515;-66
2022/06/27 03:16:15;;;;;;;15.73;14.13;;;;;;;16.43;85.51;101416.47;5008616;28;20041;-66
2022/06/27 03:18:41;;;;;;;16.23;14.63;;;;;;;16.42;84.97;101423.50;5005166;28;20033;-66
2022/06/27 03:21:06;;;;;;;16.08;14.50;;;;;;;16.44;84.15;101418.94;5005873;28;20034;-66
2022/06/27 03:23:32;;;;;;;16.23;14.02;;;;;;;16.45;84.10;101417.97;5008356;28;20778;-66
2022/06/27 03:25:58;;;;;;;15.82;14.23;;;;;;;16.38;85.26;101422.16;5006255;28;20080;-66
2022/06/27 03:28:24;;;;;;;15.43;13.93;;;;;;;16.34;85.04;101419.97;5006201;28;20026;-67
2022/06/27 03:30:49;;;;;;;17.55;15.48;;;;;;;16.29;85.66;101407.34;5003594;28;20077;-66
2022/06/27 03:33:15;;;;;;;16.70;14.95;;;;;;;16.33;85.23;101413.91;5005194;28;20087;-66
2022/06/27 03:35:41;;;;;;;16.30;14.60;;;;;;;16.30;84.11;101398.50;4999657;28;20033;-66
2022/06/27 03:38:07;;;;;;;16.05;14.40;;;;;;;16.30;84.53;101406.38;5001018;28;20029;-66
2022/06/27 03:40:33;;;;;;;15.25;13.70;;;;;;;16.24;84.24;101399.13;5007396;28;20109;-66
2022/06/27 03:42:59;;;;;;;14.57;13.18;;;;;;;16.27;84.13;101397.97;5006201;28;20537;-66
2022/06/27 03:45:24;;;;;;;16.13;13.52;;;;;;;16.27;83.86;101403.22;5004451;28;20074;-66
2022/06/27 03:47:51;;;;;;;14.82;12.73;;;;;;;16.15;84.38;101389.53;4989582;28;20137;-65
2022/06/27 03:50:18;;;;;;;15.20;12.15;;;;;;;16.13;83.64;101386.25;4991506;28;20106;-66
2022/06/27 03:52:43;;;;;;;12.98;11.60;;;;;;;16.10;83.89;101391.75;4986073;28;20033;-67
2022/06/27 03:55:10;;;;;;;13.15;11.60;;;;;;;16.18;84.24;101404.94;4989686;28;20034;-66
2022/06/27 03:57:37;;;;;;;13.02;11.73;;;;;;;16.20;84.88;101405.59;4993622;28;20044;-67
2022/06/27 04:00:04;;;;;;;13.77;12.32;;;;;;;16.21;84.88;101399.38;5001643;28;20093;-67
2022/06/27 04:02:30;;;;;;;13.38;12.00;;;;;;;16.16;85.10;101406.88;4991051;28;20073;-66
2022/06/27 04:04:55;;;;;;;13.52;12.23;;;;;;;16.14;84.75;101398.34;5003630;28;20030;-66
2022/06/27 04:07:20;;;;;;;13.82;11.48;;;;;;;16.14;83.92;101391.31;5000671;28;20038;-67
2022/06/27 04:09:46;;;;;;;12.65;11.35;;;;;;;16.07;84.39;101386.81;5001594;28;20033;-66
2022/06/27 04:12:12;;;;;;;13.15;11.68;;;;;;;16.04;84.66;101387.94;5008029;28;20060;-66
2022/06/27 04:14:37;;;;;;;12.98;11.55;;;;;;;16.04;84.30;101397.56;5001689;28;20045;-67
2022/06/27 04:17:03;;;;;;;13.18;11.35;;;;;;;16.05;84.88;101415.72;4990715;28;20977;-65
2022/06/27 04:19:28;;;;;;;13.73;12.32;;;;;;;15.92;85.88;101416.09;5004848;28;20049;-66
2022/06/27 04:21:54;;;;;;;12.73;11.43;;;;;;;15.87;85.60;101418.31;4996131;28;20535;-66
2022/06/27 04:24:20;;;;;;;13.93;12.10;;;;;;;15.96;85.28;101405.34;5004529;28;20545;-66
2022/06/27 04:26:46;;;;;;;13.07;11.77;;;;;;;15.87;85.95;101397.38;4994476;28;20034;-66
2022/06/27 04:29:11;;;;;;;13.05;11.65;;;;;;;16.00;85.58;101396.22;5004448;28;20512;-65
2022/06/27 04:31:37;;;;;;;13.00;11.57;;;;;;;16.03;85.86;101411.63;5002284;28;20105;-66
2022/06/27 04:34:04;;;;;;;15.32;11.85;;;;;;;16.04;87.03;101426.34;5002861;28;20455;-66
2022/06/27 04:36:30;;;;;;;12.40;11.10;;;;;;;16.12;86.80;101426.47;5000098;28;20391;-66
2022/06/27 04:38:55;;;;;;;14.00;12.43;;;;;;;16.15;86.34;101410.44;5004556;28;20034;-67
2022/06/27 04:41:21;;;;;;;13.57;12.25;;;;;;;16.22;85.95;101393.19;5000138;28;20487;-66
2022/06/27 04:43:47;;;;;;;13.82;12.43;;;;;;;16.26;86.29;101386.69;4999200;28;20088;-66
2022/06/27 04:46:12;;;;;;;13.23;11.93;;;;;;;16.26;84.96;101373.59;5004146;28;20022;-66
2022/06/27 04:48:38;;;;;;;13.68;12.20;;;;;;;16.33;86.52;101386.91;4998496;28;20034;-66
2022/06/27 04:51:03;;;;;;;13.52;12.13;;;;;;;16.35;84.81;101359.63;5005708;28;20096;-66
2022/06/27 04:53:30;;;;;;;13.52;12.00;;;;;;;16.39;84.66;101360.97;5001863;28;20748;-66
2022/06/27 04:55:56;;;;;;;13.50;11.50;;;;;;;16.44;84.69;101358.72;5003726;28;20374;-69
2022/06/27 04:58:22;;;;;;;13.85;12.45;;;;;;;16.38;85.67;101363.72;5000805;28;20435;-66
2022/06/27 05:00:47;;;;;;;13.88;12.20;;;;;;;16.43;85.44;101367.53;5005297;28;20512;-67
2022/06/27 05:03:13;;;;;;;14.02;12.63;;;;;;;16.36;84.56;101345.56;5002380;28;20061;-67
2022/06/27 05:05:38;;;;;;;14.32;12.82;;;;;;;16.45;85.47;101357.72;5003114;28;20033;-66
2022/06/27 05:08:04;;;;;;;15.55;14.05;;;;;;;16.42;85.35;101352.00;4999972;28;20765;-66
2022/06/27 05:10:30;;;;;;;14.35;12.95;;;;;;;16.52;84.84;101359.78;5004235;28;20536;-66
2022/06/27 05:12:56;;;;;;;16.35;14.73;;;;;;;16.61;84.39;101374.56;5006766;28;20030;-69
2022/06/27 05:15:21;;;;;;;16.02;14.38;;;;;;;16.55;84.88;101375.19;4991422;28;20520;-66
2022/06/27 05:17:46;;;;;;;17.13;15.48;;;;;;;16.53;85.13;101371.91;5004879;28;20112;-68
2022/06/27 05:20:12;;;;;;;16.77;15.07;;;;;;;16.59;85.18;101371.28;5005083;28;20030;-66
2022/06/27 05:22:39;;;;;;;17.10;15.32;;;;;;;16.50;85.85;101362.53;5005613;28;20053;-66
2022/06/27 05:25:06;;;;;;;16.77;15.27;;;;;;;16.58;85.22;101364.41;4994319;28;20523;-67
2022/06/27 05:27:34;;;;;;;17.58;15.82;;;;;;;16.55;85.89;101354.22;4994999;28;20449;-66
2022/06/27 05:29:59;;;;;;;18.25;16.50;;;;;;;16.57;85.16;101362.75;5006470;28;20091;-66
2022/06/27 05:32:24;;;;;;;18.15;16.55;;;;;;;16.58;85.21;101369.66;5003827;28;20702;-66
2022/06/27 05:34:50;;;;;;;18.23;16.30;;;;;;;16.49;85.16;101378.41;5001794;28;20061;-67
2022/06/27 05:37:15;;;;;;;18.90;17.05;;;;;;;16.44;87.05;101384.91;4991925;28;20053;-66
2022/06/27 05:39:43;;;;;;;17.73;16.10;;;;;;;16.43;86.35;101383.25;4993046;28;20042;-66
2022/06/27 05:42:08;;;;;;;17.95;16.15;;;;;;;16.50;86.48;101366.94;4998601;28;20034;-66
2022/06/27 05:44:34;;;;;;;17.95;16.15;;;;;;;16.48;87.29;101374.97;5000649;28;20037;-66
2022/06/27 05:46:59;;;;;;;18.35;16.45;;;;;;;16.46;86.45;101369.88;5006275;28;20025;-66
2022/06/27 05:49:25;;;;;;;17.90;16.17;;;;;;;16.55;86.32;101380.41;4991548;28;20484;-66
2022/06/27 05:51:52;;;;;;;17.58;15.75;;;;;;;16.45;86.79;101397.00;4998060;28;20109;-66
2022/06/27 05:54:18;;;;;;;16.98;15.43;;;;;;;16.58;87.19;101432.50;4988262;28;20046;-66
2022/06/27 05:56:44;;;;;;;18.38;16.67;;;;;;;16.55;86.79;101427.53;4999073;28;20045;-66
2022/06/27 05:59:10;;;;;;;19.80;17.95;;;;;;;16.58;87.33;101440.34;4989236;28;20031;-66
2022/06/27 06:01:37;;;;;;;19.23;17.40;;;;;;;16.58;87.25;101449.03;5001437;28;20029;-66
2022/06/27 06:04:03;;;;;;;19.10;17.20;;;;;;;16.63;86.99;101461.66;5005131;28;20040;-66
2022/06/27 06:06:29;;;;;;;18.20;16.50;;;;;;;16.63;86.74;101462.50;5003626;28;20618;-67
2022/06/27 06:08:55;;;;;;;17.58;15.80;;;;;;;16.70;86.53;101496.78;5005501;28;20519;-66
2022/06/27 06:11:21;;;;;;;16.40;14.88;;;;;;;16.69;87.82;101500.38;4999887;28;20064;-66
2022/06/27 06:13:47;;;;;;;16.95;14.65;;;;;;;16.63;87.97;101491.31;5001031;28;20117;-69
2022/06/27 06:16:19;;;;;;;15.70;14.05;;;;;;;16.75;87.49;101496.38;4995586;28;20109;-66
2022/06/27 06:18:47;;;;;;;16.45;14.75;;;;;;;16.77;87.05;101500.47;5003587;28;20079;-67
2022/06/27 06:21:13;;;;;;;17.70;15.85;;;;;;;16.69;87.83;101487.28;5004507;28;20096;-67
2022/06/27 06:23:39;;;;;;;16.52;14.65;;;;;;;16.72;87.31;101463.44;4998348;28;20379;-66
2022/06/27 06:26:05;;;;;;;16.05;14.38;;;;;;;16.84;85.84;101467.47;5000613;28;20528;-67
2022/06/27 06:28:32;;;;;;;15.60;14.20;;;;;;;16.85;86.16;101476.97;5003992;28;20026;-66
2022/06/27 06:30:57;;;;;;;15.90;14.20;;;;;;;16.83;85.55;101473.69;4992050;28;20026;-66
2022/06/27 06:33:23;;;;;;;16.70;14.75;;;;;;;16.91;85.57;101480.78;4995034;28;20029;-66
2022/06/27 06:35:48;;;;;;;15.98;14.27;;;;;;;16.87;85.37;101469.78;5000640;28;20046;-68
2022/06/27 06:38:15;;;;;;;16.30;14.60;;;;;;;16.90;85.74;101485.19;5005022;28;20045;-67
2022/06/27 06:40:40;;;;;;;16.80;15.20;;;;;;;16.89;86.09;101486.19;5003202;28;20030;-66
2022/06/27 06:43:06;;;;;;;17.58;15.88;;;;;;;16.90;86.71;101495.69;4999874;28;20023;-66
2022/06/27 06:45:31;;;;;;;16.58;14.95;;;;;;;16.96;85.83;101505.56;4990935;28;20034;-66
2022/06/27 06:47:57;;;;;;;17.75;15.95;;;;;;;16.99;85.77;101497.41;5007024;28;20073;-66
2022/06/27 06:50:22;;;;;;;17.85;16.15;;;;;;;16.91;86.86;101481.59;5008191;28;20165;-66
2022/06/27 06:52:50;;;;;;;17.70;16.02;;;;;;;16.95;86.63;101476.91;5007547;28;20049;-66
2022/06/27 06:55:17;;;;;;;17.00;15.23;;;;;;;16.93;85.69;101469.19;5008853;28;20045;-67
2022/06/27 06:57:43;;;;;;;17.60;15.82;;;;;;;16.95;86.73;101466.41;5004323;28;20511;-66
2022/06/27 07:00:10;;;;;;;16.95;15.35;;;;;;;16.99;87.25;101459.91;5002979;28;20045;-66
2022/06/27 07:02:37;;;;;;;18.40;16.50;;;;;;;16.99;87.12;101452.88;5008857;28;20041;-66
2022/06/27 07:05:04;;;;;;;19.48;16.33;;;;;;;17.02;87.42;101445.66;5007797;28;20438;-66
2022/06/27 07:07:32;;;;;;;17.60;15.85;;;;;;;17.05;85.83;101435.72;5008158;28;20034;-66
2022/06/27 07:09:58;;;;;;;17.88;16.00;;;;;;;17.06;85.40;101426.03;5004743;28;20444;-66
2022/06/27 07:12:25;;;;;;;18.13;16.42;;;;;;;17.10;85.18;101411.66;5001194;28;20041;-66
2022/06/27 07:14:51;;;;;;;17.42;15.70;;;;;;;17.04;85.22;101412.28;5016577;28;20044;-69
2022/06/27 07:17:18;;;;;;;17.67;16.05;;;;;;;17.08;85.38;101429.31;5002331;28;20060;-66
2022/06/27 07:19:48;;;;;;;19.58;16.05;;;;;;;17.15;85.51;101440.88;5006506;28;20042;-66
2022/06/27 07:22:14;;;;;;;18.73;16.80;;;;;;;17.21;86.35;101430.59;5005398;28;20038;-68
2022/06/27 07:24:42;;;;;;;19.30;17.40;;;;;;;17.30;86.90;101418.34;5008404;28;20026;-66
2022/06/27 07:27:09;;;;;;;;;;;;;;;17.44;85.76;101415.16;5007049;28;20029;-70
2022/06/27 07:29:35;;;;;;;19.88;17.85;;;;;;;17.28;85.78;101404.56;5007762;28;19967;-68
2022/06/27 07:32:01;;;;;;;18.63;16.83;;;;;;;17.38;85.70;101420.22;5007371;28;20030;-67
2022/06/27 07:34:27;;;;;;;18.27;16.52;;;;;;;17.37;85.17;101432.47;4995697;28;20038;-69
2022/06/27 07:36:52;;;;;;;20.05;18.15;;;;;;;17.31;84.92;101440.94;5008592;28;20428;-68
2022/06/27 07:39:18;;;;;;;19.20;17.40;;;;;;;17.37;83.72;101453.44;5003331;28;20026;-67
2022/06/27 07:41:44;;;;;;;20.30;18.30;;;;;;;17.36;84.17;101464.91;4999985;28;20152;-66
2022/06/27 07:44:10;;;;;;;21.20;19.10;;;;;;;17.41;85.44;101462.66;5002158;28;20022;-66
2022/06/27 07:46:37;;;;;;;20.30;18.27;;;;;;;17.48;85.40;101463.69;5002826;28;20037;-66
2022/06/27 07:49:02;;;;;;;21.17;19.23;;;;;;;17.53;83.99;101466.66;5007706;28;20034;-69
2022/06/27 07:51:28;;;;;;;20.10;18.30;;;;;;;17.71;85.36;101468.41;4997115;28;20462;-66
2022/06/27 07:53:53;;;;;;;21.25;19.15;;;;;;;17.74;83.81;101468.13;4996815;28;20041;-67
2022/06/27 07:56:20;;;;;;;20.27;18.40;;;;;;;17.84;83.13;101468.84;5003636;28;20025;-68
2022/06/27 07:58:48;;;;;;;19.15;17.25;;;;;;;17.89;81.80;101474.44;5006934;28;20038;-71
2022/06/27 08:01:14;;;;;;;18.10;16.27;;;;;;;17.98;81.98;101498.91;4998685;28;20022;-70
2022/06/27 08:03:44;;;;;;;18.10;16.30;;;;;;;17.88;80.24;101470.16;4999177;28;20021;-66
2022/06/27 08:06:15;;;;;;;18.02;16.25;;;;;;;17.91;81.35;101490.84;4994189;28;20108;-66
2022/06/27 08:08:43;;;;;;;18.73;16.85;;;;;;;18.00;81.24;101503.03;5004852;28;20506;-66
2022/06/27 08:11:11;;;;;;;18.55;16.70;;;;;;;17.86;80.71;101495.75;5006551;28;20093;-69
2022/06/27 08:13:37;;;;;;;17.83;16.10;;;;;;;17.98;80.81;101515.50;5004790;28;20542;-67
2022/06/27 08:16:05;;;;;;;17.83;16.10;;;;;;;18.07;81.87;101520.78;5005970;28;20022;-67
2022/06/27 08:18:33;;;;;;;18.20;16.38;;;;;;;18.10;81.02;101525.72;5004899;28;20034;-66
2022/06/27 08:20:59;;;;;;;;;;;;;;;18.24;81.66;101522.50;4997330;28;20068;-66
2022/06/27 08:23:25;;;;;;;19.40;17.50;;;;;;;18.10;81.71;101510.78;5007021;28;19949;-66
2022/06/27 08:25:51;;;;;;;18.27;16.48;;;;;;;18.23;81.11;101515.59;5000891;28;20042;-66
2022/06/27 08:28:16;;;;;;;18.95;16.33;;;;;;;18.28;81.43;101523.81;4995645;28;20022;-67
2022/06/27 08:30:43;;;;;;;17.73;15.82;;;;;;;18.29;80.33;101514.94;5003297;28;20389;-68
2022/06/27 08:33:10;;;;;;;18.45;16.40;;;;;;;18.36;80.00;101488.91;4997633;28;20044;-69
2022/06/27 08:35:36;;;;;;;16.40;14.90;;;;;;;18.47;78.81;101507.81;5000798;28;20462;-66
2022/06/27 08:38:02;;;;;;;17.42;15.73;;;;;;;18.52;78.77;101516.03;5004249;28;20069;-66
2022/06/27 08:40:28;;;;;;;17.58;15.77;;;;;;;18.38;77.88;101508.75;5006739;28;20030;-66
2022/06/27 08:42:55;;;;;;;17.58;15.90;;;;;;;18.46;78.28;101529.78;4987565;28;20471;-69
2022/06/27 08:45:25;;;;;;;16.95;15.35;;;;;;;18.48;78.08;101540.16;4998562;28;20426;-67
2022/06/27 08:47:51;;;;;;;17.52;15.82;;;;;;;18.39;77.68;101539.28;4999163;28;20018;-69
2022/06/27 08:50:17;;;;;;;17.65;15.95;;;;;;;18.47;78.68;101549.03;4999051;28;20481;-66
2022/06/27 08:52:45;;;;;;;17.95;16.20;;;;;;;18.41;78.83;101539.97;5000694;28;20037;-67
2022/06/27 08:55:11;;;;;;;17.25;15.57;;;;;;;18.43;78.81;101543.25;4999674;28;20038;-67
2022/06/27 08:57:39;;;;;;;18.48;16.73;;;;;;;18.41;79.50;101547.84;4993398;28;20057;-69
2022/06/27 09:00:06;;;;;;;19.88;17.98;;;;;;;18.40;79.41;101548.81;5005010;28;20317;-68
2022/06/27 09:02:36;;;;;;;19.00;17.23;;;;;;;18.33;79.54;101547.81;5004443;28;20164;-68
2022/06/27 09:05:03;;;;;;;19.17;17.38;;;;;;;18.38;79.81;101548.16;5005684;28;20033;-66
2022/06/27 09:07:49;;;;;;;18.73;16.98;;;;;;;18.43;79.30;101548.50;5004704;28;20432;-66
2022/06/27 09:10:35;;;;;;;20.25;18.15;;;;;;;18.46;78.78;101545.53;5003038;28;20735;-70
2022/06/27 09:13:12;;;;;;;19.95;18.05;;;;;;;18.41;78.21;101545.22;5000637;28;20061;-67
2022/06/27 09:15:37;;;;;;;19.02;17.33;;;;;;;18.50;78.35;101544.25;4992383;28;20038;-67
2022/06/27 09:18:06;;;;;;;19.42;17.52;;;;;;;18.55;78.35;101547.22;5005177;28;20079;-66
2022/06/27 09:20:59;;;;;;;20.58;18.77;;;;;;;18.62;78.20;101559.72;4993568;28;20032;-66
2022/06/27 09:23:40;;;;;;;21.17;19.17;;;;;;;18.57;78.66;101549.69;4990158;28;20046;-68
2022/06/27 09:26:09;;;;;;;21.92;19.90;;;;;;;18.66;77.15;101554.00;4988466;28;20061;-67
2022/06/27 09:28:42;;;;;;;;;;;;;;;18.80;78.14;101547.31;5003104;28;20172;-69
2022/06/27 09:31:31;;;;;;;22.25;20.13;;;;;;;18.68;77.29;101540.72;5005247;28;20012;-66
2022/06/27 09:34:23;;;;;;;22.27;20.27;;;;;;;18.77;77.78;101545.03;4993342;28;20132;-66
2022/06/27 09:36:54;;;;;;;22.45;20.45;;;;;;;18.78;76.71;101541.41;4997903;28;20034;-68
2022/06/27 09:39:24;;;;;;;23.23;21.02;;;;;;;18.76;76.15;101549.47;4988141;28;20034;-67
2022/06/27 09:41:59;;;;;;;22.08;19.98;;;;;;;18.74;76.87;101561.09;4993418;28;20057;-66
2022/06/27 09:44:31;;;;;;;21.88;19.75;;;;;;;18.87;76.15;101572.00;4997594;28;20409;-66
2022/06/27 09:47:15;;;;;;;19.88;18.02;;;;;;;18.88;75.59;101568.38;5005366;28;20073;-66
2022/06/27 09:49:43;;;;;;;18.73;16.95;;;;;;;18.95;75.19;101568.53;4999454;28;20034;-66
2022/06/27 09:52:20;;;;;;;19.52;17.67;;;;;;;18.90;75.35;101561.13;5004038;28;20049;-66
2022/06/27 09:54:48;;;;;;;17.13;15.35;;;;;;;18.99;74.20;101560.19;4992503;28;20129;-66
2022/06/27 09:57:15;;;;;;;18.23;15.90;;;;;;;18.91;73.50;101560.16;4995125;28;20038;-69
2022/06/27 09:59:42;;;;;;;15.77;14.18;;;;;;;18.98;73.46;101552.44;5001524;28;20033;-66
2022/06/27 10:02:08;;;;;;;16.33;14.63;;;;;;;18.99;72.66;101562.81;4997554;28;20058;-67
2022/06/27 10:04:37;;;;;;;16.13;14.55;;;;;;;19.05;72.22;101556.09;4999523;28;20728;-67
2022/06/27 10:07:07;;;;;;;14.63;12.93;;;;;;;18.97;70.81;101556.88;4994329;28;20030;-69
2022/06/27 10:09:35;;;;;;;13.82;12.43;;;;;;;19.04;70.01;101557.06;5005528;28;20032;-66
2022/06/27 10:12:20;;;;;;;;;;;;;;;19.20;72.87;101558.88;5002086;28;20097;-70
2022/06/27 10:14:46;;;;;;;13.23;11.82;;;;;;;19.03;71.07;101556.22;5007155;28;19972;-68
2022/06/27 10:17:15;;;;;;;14.00;11.80;;;;;;;19.03;70.63;101555.41;5001691;28;20382;-66
2022/06/27 10:20:00;;;;;;;14.07;12.63;;;;;;;19.08;73.16;101543.41;4989658;28;20038;-66
2022/06/27 10:22:26;;;;;;;16.17;13.77;;;;;;;18.98;72.20;101552.44;4993408;28;20412;-67
2022/06/27 10:24:51;;;;;;;14.65;12.35;;;;;;;19.00;69.44;101540.78;5005527;28;20482;-67
2022/06/27 10:27:30;;;;;;;13.88;12.23;;;;;;;19.08;71.39;101542.59;4995934;28;20031;-67
2022/06/27 10:29:57;;;;;;;14.45;12.95;;;;;;;19.01;69.17;101539.78;5000845;28;20040;-66
2022/06/27 10:32:52;;;;;;;12.70;11.18;;;;;;;19.20;71.95;101524.69;4998105;28;20607;-67
2022/06/27 10:35:17;;;;;;;15.02;12.40;;;;;;;19.26;70.83;101534.53;4994038;28;20049;-66
2022/06/27 10:37:43;;;;;;;14.55;12.40;;;;;;;19.36;70.91;101519.41;5000505;28;20029;-67
2022/06/27 10:40:21;;;;;;;15.15;12.57;;;;;;;19.40;70.88;101531.25;4999806;28;20390;-67
2022/06/27 10:42:54;;;;;;;14.00;12.55;;;;;;;19.45;69.05;101523.69;5000340;28;20034;-67
2022/06/27 10:45:20;;;;;;;13.55;12.15;;;;;;;19.49;68.36;101524.16;4999611;28;20057;-66
2022/06/27 10:47:59;;;;;;;13.70;11.85;;;;;;;19.37;67.27;101528.94;5002024;28;20034;-67
2022/06/27 10:50:26;;;;;;;12.70;11.23;;;;;;;19.38;67.80;101533.22;4987325;28;20051;-66
2022/06/27 10:53:19;;;;;;;13.38;10.45;;;;;;;19.41;67.92;101534.72;5000455;28;20033;-67
2022/06/27 10:55:45;;;;;;;12.88;10.40;;;;;;;19.36;66.98;101524.69;4997998;28;20045;-66
2022/06/27 10:58:28;;;;;;;12.30;10.10;;;;;;;19.50;70.38;101521.41;5000583;28;20060;-66
2022/06/27 11:01:11;;;;;;;12.38;9.70;;;;;;;19.51;67.56;101533.56;5004195;28;20037;-70
2022/06/27 11:03:39;;;;;;;11.98;8.70;;;;;;;19.47;65.59;101532.22;4997591;28;20525;-67
2022/06/27 11:06:05;;;;;;;12.95;9.88;;;;;;;19.41;65.99;101522.38;5002937;28;20088;-67
2022/06/27 11:08:35;;;;;;;12.48;9.45;;;;;;;19.51;65.72;101536.19;4991233;28;20033;-68
2022/06/27 11:11:02;;;;;;;11.65;9.60;;;;;;;19.51;65.95;101533.56;5003978;28;20033;-66
2022/06/27 11:13:41;;;;;;;13.55;10.93;;;;;;;19.39;65.86;101539.31;5002233;28;20026;-66
2022/06/27 11:16:19;;;;;;;14.52;12.98;;;;;;;19.40;67.63;101536.53;4990747;28;20045;-66